Time;durP1;ratioP1;P1;durP2;ratioP2;P2;SDS_P1;SDS_P2;PMS_P1;PMS_P2;Temp;Humidity;BMP_temperature;BMP_pressure;BME280_temperature;BME280_humidity;BME280_pressure;Samples;Min_cycle;Max_cycle;Signal;HPM_P1;HPM_P2
2023/12/29 00:02:38;;;;;;;0.70;0.52;;;;;;;8.51;56.24;99651.28;10503572;28;20056;-68
2023/12/29 00:07:40;;;;;;;0.95;0.82;;;;;;;8.49;56.27;99643.56;10518818;28;20457;-68
2023/12/29 00:12:42;;;;;;;1.23;1.05;;;;;;;8.42;56.49;99642.22;10520869;28;20043;-67
2023/12/29 00:17:46;;;;;;;0.98;0.80;;;;;;;8.37;56.55;99643.38;10502410;28;20530;-67
2023/12/29 00:22:48;;;;;;;1.25;0.90;;;;;;;8.32;56.53;99630.63;10520925;28;20047;-67
2023/12/29 00:27:50;;;;;;;1.35;1.00;;;;;;;8.31;56.68;99631.56;10501932;28;20130;-67
2023/12/29 00:32:52;;;;;;;0.95;0.73;;;;;;;8.26;56.83;99624.91;10502377;28;20387;-67
2023/12/29 00:37:54;;;;;;;4.82;1.00;;;;;;;8.25;56.64;99626.69;10509751;28;20061;-67
2023/12/29 00:42:56;;;;;;;1.15;1.05;;;;;;;8.33;56.65;99634.91;10476647;28;20041;-68
2023/12/29 00:48:00;;;;;;;1.10;1.00;;;;;;;8.34;56.53;99635.75;10509962;28;20048;-67
2023/12/29 00:53:03;;;;;;;3.42;1.35;;;;;;;8.39;56.74;99639.78;10474646;28;20592;-67
2023/12/29 00:58:04;;;;;;;4.75;1.17;;;;;;;8.39;56.22;99634.56;10477232;28;20102;-67
2023/12/29 01:03:07;;;;;;;1.13;0.85;;;;;;;8.55;56.54;99639.75;10476080;28;20040;-67
2023/12/29 01:08:09;;;;;;;1.10;0.95;;;;;;;8.73;56.18;99642.19;10474648;28;20044;-68
2023/12/29 01:13:11;;;;;;;1.35;0.95;;;;;;;8.88;55.96;99630.03;10473563;28;20044;-67
2023/12/29 01:18:13;;;;;;;0.85;0.77;;;;;;;8.91;55.79;99632.47;10508425;28;20083;-68
2023/12/29 01:23:16;;;;;;;1.15;0.98;;;;;;;9.00;55.68;99612.81;10473195;28;20444;-67
2023/12/29 01:28:18;;;;;;;2.22;0.80;;;;;;;9.08;55.30;99603.63;10491725;28;20064;-67
2023/12/29 01:33:21;;;;;;;2.90;1.00;;;;;;;9.11;55.59;99593.03;10471934;28;20040;-67
2023/12/29 01:38:23;;;;;;;1.88;0.80;;;;;;;9.23;55.29;99594.06;10504942;28;20109;-67
2023/12/29 01:43:25;;;;;;;1.15;1.00;;;;;;;9.22;55.33;99577.56;10516811;28;20609;-67
2023/12/29 01:48:27;;;;;;;1.80;1.35;;;;;;;9.14;55.37;99587.63;10516547;28;20105;-67
2023/12/29 01:53:29;;;;;;;4.55;1.17;;;;;;;9.04;54.95;99573.44;10516267;28;20052;-68
2023/12/29 01:58:49;;;;;;;1.67;0.95;;;;;;;8.96;55.42;99567.84;10516540;28;20040;-68
2023/12/29 02:03:52;;;;;;;1.90;1.00;;;;;;;8.84;55.67;99565.94;10497583;28;20044;-67
2023/12/29 02:08:55;;;;;;;1.10;0.80;;;;;;;8.73;55.84;99570.94;10516294;28;20575;-68
2023/12/29 02:13:59;;;;;;;3.95;0.93;;;;;;;8.75;55.98;99571.72;10515462;28;20050;-68
2023/12/29 02:19:08;;;;;;;2.20;1.10;;;;;;;8.76;56.07;99581.19;10482088;28;20543;-67
2023/12/29 02:24:10;;;;;;;1.73;1.13;;;;;;;8.83;56.06;99582.53;10516162;28;20385;-67
2023/12/29 02:29:17;;;;;;;3.92;1.17;;;;;;;8.86;56.04;99571.91;10481568;28;20058;-67
2023/12/29 02:34:22;;;;;;;0.93;0.90;;;;;;;8.95;55.94;99576.59;10515647;28;20052;-68
2023/12/29 02:39:24;;;;;;;2.97;1.33;;;;;;;9.09;55.81;99574.03;10516037;28;20048;-67
2023/12/29 02:44:26;;;;;;;1.98;1.10;;;;;;;9.23;55.42;99566.22;10515937;28;20089;-67
2023/12/29 02:49:28;;;;;;;2.13;1.50;;;;;;;9.19;55.76;99572.53;10515711;28;20040;-68
2023/12/29 02:54:30;;;;;;;1.92;1.02;;;;;;;9.26;55.52;99567.81;10514540;28;20048;-68
2023/12/29 02:59:32;;;;;;;2.13;1.13;;;;;;;9.30;55.70;99569.28;10513649;28;20032;-68
2023/12/29 03:04:34;;;;;;;2.92;1.48;;;;;;;9.28;55.36;99563.31;10485183;28;20050;-68
2023/12/29 03:09:37;;;;;;;1.17;0.90;;;;;;;9.39;55.42;99540.84;10522603;28;20118;-67
2023/12/29 03:14:39;;;;;;;4.55;1.40;;;;;;;9.48;55.31;99540.28;10516383;28;20594;-68
2023/12/29 03:19:41;;;;;;;3.25;1.20;;;;;;;9.54;55.36;99528.66;10523021;28;20044;-67
2023/12/29 03:24:44;;;;;;;3.78;1.67;;;;;;;9.48;55.46;99526.41;10522540;28;20516;-67
2023/12/29 03:29:46;;;;;;;1.77;1.00;;;;;;;9.49;55.48;99534.13;10522306;28;20098;-67
2023/12/29 03:34:49;;;;;;;3.58;0.93;;;;;;;9.57;55.33;99541.50;10522322;28;20099;-67
2023/12/29 03:39:51;;;;;;;2.28;0.90;;;;;;;9.60;55.36;99530.88;10521998;28;20040;-67
2023/12/29 03:44:53;;;;;;;2.78;1.05;;;;;;;9.60;55.33;99523.88;10521686;28;20067;-67
2023/12/29 03:49:56;;;;;;;1.58;0.95;;;;;;;9.58;55.25;99530.94;10521335;28;20136;-67
2023/12/29 03:54:58;;;;;;;4.75;1.00;;;;;;;9.69;55.29;99521.66;10520831;28;20064;-67
2023/12/29 04:00:00;;;;;;;3.47;1.55;;;;;;;9.56;55.51;99517.16;10521310;28;20044;-67
2023/12/29 04:05:13;;;;;;;1.52;0.90;;;;;;;9.66;55.39;99517.47;10502911;28;20048;-67
2023/12/29 04:10:15;;;;;;;1.20;0.80;;;;;;;9.57;55.53;99524.06;10519653;28;20043;-67
2023/12/29 04:15:17;;;;;;;3.22;1.02;;;;;;;9.65;55.29;99508.75;10519227;28;20403;-68
2023/12/29 04:20:20;;;;;;;2.47;0.80;;;;;;;9.72;55.30;99501.41;10484928;28;20043;-67
2023/12/29 04:25:22;;;;;;;2.33;1.20;;;;;;;9.77;55.19;99480.25;10502280;28;20441;-68
2023/12/29 04:30:25;;;;;;;1.70;0.85;;;;;;;9.72;55.27;99496.19;10519674;28;20072;-67
2023/12/29 04:35:30;;;;;;;3.17;1.13;;;;;;;9.63;55.31;99476.69;10535803;28;20052;-67
2023/12/29 04:40:32;;;;;;;4.38;1.17;;;;;;;9.59;55.33;99469.13;10519904;28;20050;-67
2023/12/29 04:45:34;;;;;;;1.45;1.00;;;;;;;9.60;55.26;99468.22;10501974;28;20067;-68
2023/12/29 04:50:36;;;;;;;2.78;1.00;;;;;;;9.54;55.49;99472.03;10519078;28;20032;-68
2023/12/29 04:55:38;;;;;;;1.20;0.63;;;;;;;9.58;55.61;99475.31;10519122;28;20058;-68
2023/12/29 05:00:40;;;;;;;2.65;1.10;;;;;;;9.57;55.63;99482.28;10500647;28;20231;-67
2023/12/29 05:05:42;;;;;;;3.40;1.33;;;;;;;9.60;55.57;99487.34;10500633;28;20123;-68
2023/12/29 05:10:44;;;;;;;3.40;0.90;;;;;;;9.63;55.67;99487.13;10518507;28;20052;-67
2023/12/29 05:15:46;;;;;;;1.95;1.05;;;;;;;9.61;55.80;99473.34;10518451;28;20123;-68
2023/12/29 05:20:48;;;;;;;1.65;0.85;;;;;;;9.53;55.78;99487.78;10494094;28;20503;-68
2023/12/29 05:25:50;;;;;;;2.30;1.10;;;;;;;9.60;55.74;99489.94;10517428;28;20120;-68
2023/12/29 05:30:53;;;;;;;3.00;0.90;;;;;;;9.50;56.10;99490.63;10516793;28;20061;-68
2023/12/29 05:35:55;;;;;;;2.20;0.90;;;;;;;9.52;56.07;99484.34;10499477;28;20052;-67
2023/12/29 05:40:57;;;;;;;2.17;1.10;;;;;;;9.61;55.96;99481.16;10516249;28;20046;-67
2023/12/29 05:45:59;;;;;;;2.08;0.90;;;;;;;9.51;55.94;99477.47;10517185;28;20123;-67
2023/12/29 05:51:09;;;;;;;2.88;1.50;;;;;;;9.53;56.10;99477.34;10499090;28;20592;-67
2023/12/29 05:56:13;;;;;;;2.47;1.15;;;;;;;9.52;56.09;99486.94;10517370;28;20238;-68
2023/12/29 06:01:15;;;;;;;6.20;1.40;;;;;;;9.59;56.03;99477.81;10498984;28;20028;-68
2023/12/29 06:06:17;;;;;;;4.07;1.15;;;;;;;9.60;56.16;99482.13;10517109;28;20051;-68
2023/12/29 06:11:19;;;;;;;2.85;1.38;;;;;;;9.60;56.03;99470.81;10516329;28;20047;-67
2023/12/29 06:16:21;;;;;;;3.92;1.15;;;;;;;9.59;56.11;99472.59;10516497;28;20415;-67
2023/12/29 06:21:23;;;;;;;2.15;1.20;;;;;;;9.44;56.51;99470.94;10516487;28;20408;-67
2023/12/29 06:26:25;;;;;;;1.38;0.75;;;;;;;9.50;56.69;99480.19;10516141;28;20052;-68
2023/12/29 06:31:27;;;;;;;2.65;1.48;;;;;;;9.59;56.56;99496.09;10516329;28;20072;-67
2023/12/29 06:36:30;;;;;;;2.35;1.38;;;;;;;9.58;56.71;99491.78;10515271;28;20041;-69
2023/12/29 06:41:31;;;;;;;4.20;1.10;;;;;;;9.67;56.79;99500.03;10540325;27;20144;-68
2023/12/29 06:46:36;;;;;;;1.73;0.80;;;;;;;9.57;57.10;99494.50;10523936;28;20114;-68
2023/12/29 06:51:40;;;;;;;1.65;0.95;;;;;;;9.67;57.09;99497.44;10524025;28;20040;-68
2023/12/29 06:56:43;;;;;;;3.10;1.25;;;;;;;9.74;56.99;99506.53;10521625;28;20059;-68
2023/12/29 07:01:46;;;;;;;0.80;0.68;;;;;;;9.76;57.04;99494.22;10500277;28;20048;-68
2023/12/29 07:06:48;;;;;;;1.02;0.90;;;;;;;9.67;57.45;99502.66;10506034;28;20567;-69
2023/12/29 07:11:50;;;;;;;1.80;1.35;;;;;;;9.76;57.19;99502.91;10505336;28;20052;-69
2023/12/29 07:16:52;;;;;;;1.30;0.88;;;;;;;9.75;57.46;99498.59;10522898;28;20174;-68
2023/12/29 07:21:55;;;;;;;0.90;0.65;;;;;;;9.73;57.57;99497.03;10522224;28;20516;-67
2023/12/29 07:26:57;;;;;;;0.85;0.68;;;;;;;9.82;57.48;99512.13;10522875;28;20591;-68
2023/12/29 07:31:59;;;;;;;1.25;0.90;;;;;;;9.84;57.53;99507.63;10481741;28;20076;-68
2023/12/29 07:37:01;;;;;;;1.05;0.73;;;;;;;9.83;57.45;99506.78;10514044;28;20054;-69
2023/12/29 07:42:03;;;;;;;2.00;0.70;;;;;;;9.78;57.61;99511.47;10480165;28;20052;-68
2023/12/29 07:47:07;;;;;;;0.80;0.68;;;;;;;9.87;57.36;99516.09;10497113;28;20036;-69
2023/12/29 07:52:10;;;;;;;1.13;0.68;;;;;;;9.89;57.41;99509.00;10491930;28;20107;-68
2023/12/29 07:57:11;;;;;;;3.17;1.30;;;;;;;9.91;57.37;99493.25;10513284;28;20044;-69
2023/12/29 08:02:13;;;;;;;3.63;0.95;;;;;;;10.06;57.15;99484.41;10504483;28;20032;-68
2023/12/29 08:07:16;;;;;;;1.23;0.85;;;;;;;10.16;57.00;99486.34;10495135;28;20048;-69
2023/12/29 08:12:18;;;;;;;1.70;0.80;;;;;;;10.07;57.02;99486.97;10513505;28;20071;-68
2023/12/29 08:17:20;;;;;;;3.00;0.98;;;;;;;10.13;57.06;99485.72;10479371;28;20123;-68
2023/12/29 08:22:22;;;;;;;2.50;1.40;;;;;;;10.19;57.05;99488.78;10512909;28;20573;-68
2023/12/29 08:27:25;;;;;;;1.25;1.00;;;;;;;10.23;56.79;99494.63;10512157;28;20044;-68
2023/12/29 08:32:27;;;;;;;4.68;0.80;;;;;;;10.15;57.14;99494.28;10476540;28;20052;-70
2023/12/29 08:37:29;;;;;;;1.52;1.08;;;;;;;10.20;56.93;99494.81;10493423;28;20063;-70
2023/12/29 08:42:31;;;;;;;0.80;0.63;;;;;;;10.09;57.49;99502.53;10512139;28;20044;-70
2023/12/29 08:47:34;;;;;;;1.15;0.90;;;;;;;10.12;57.48;99486.63;10512126;28;20036;-70
2023/12/29 08:52:36;;;;;;;1.35;0.50;;;;;;;10.10;57.73;99485.91;10506502;28;20510;-70
2023/12/29 08:57:38;;;;;;;1.00;0.68;;;;;;;10.24;57.58;99478.84;10509956;28;20044;-70
2023/12/29 09:02:40;;;;;;;1.25;0.68;;;;;;;10.20;57.84;99479.13;10510997;28;20052;-70
2023/12/29 09:07:42;;;;;;;1.67;0.88;;;;;;;10.29;57.52;99486.38;10511130;28;20048;-70
2023/12/29 09:12:45;;;;;;;1.08;0.85;;;;;;;10.20;57.63;99489.59;10511777;28;20152;-70
2023/12/29 09:17:47;;;;;;;0.45;0.43;;;;;;;10.33;57.63;99487.88;10510678;28;20469;-70
2023/12/29 09:22:49;;;;;;;2.65;0.90;;;;;;;10.16;58.07;99483.72;10510899;28;20565;-70
2023/12/29 09:27:52;;;;;;;2.58;0.90;;;;;;;10.14;58.10;99482.16;10527179;27;20565;-69
2023/12/29 09:32:54;;;;;;;0.65;0.60;;;;;;;10.30;57.83;99504.56;10510493;28;20126;-70
2023/12/29 09:37:58;;;;;;;1.08;0.65;;;;;;;10.25;58.04;99511.03;10502395;28;20044;-70
2023/12/29 09:43:03;;;;;;;1.98;0.70;;;;;;;10.19;58.16;99501.84;10506924;28;20512;-70
2023/12/29 09:48:13;;;;;;;2.13;1.05;;;;;;;10.26;57.94;99507.47;10505152;28;20051;-70
2023/12/29 09:53:17;;;;;;;0.70;0.70;;;;;;;10.24;58.06;99517.19;10500960;28;20150;-71
2023/12/29 09:58:21;;;;;;;1.67;0.70;;;;;;;10.41;57.76;99530.03;10507554;28;20804;-70
2023/12/29 10:03:24;;;;;;;0.70;0.65;;;;;;;10.44;57.68;99524.56;10506157;28;20036;-70
2023/12/29 10:08:33;;;;;;;2.28;1.38;;;;;;;10.27;58.11;99524.84;10507309;28;20047;-71
2023/12/29 10:13:38;;;;;;;1.63;1.08;;;;;;;10.26;58.15;99524.00;10506402;28;20436;-70
2023/12/29 10:18:49;;;;;;;1.25;0.68;;;;;;;10.40;58.11;99521.34;10507836;28;20569;-70
2023/12/29 10:24:10;;;;;;;0.75;0.60;;;;;;;10.33;58.20;99517.47;10506289;28;20062;-70
2023/12/29 10:29:12;;;;;;;2.58;0.75;;;;;;;10.41;58.21;99512.56;10506840;28;20444;-71
2023/12/29 10:34:31;;;;;;;0.93;0.75;;;;;;;10.53;57.92;99516.13;10519801;28;20506;-70
2023/12/29 10:39:34;;;;;;;0.90;0.47;;;;;;;10.80;57.51;99516.09;10487915;28;20060;-70
2023/12/29 10:44:37;;;;;;;0.43;0.40;;;;;;;10.85;57.48;99517.44;10505405;28;20048;-70
2023/12/29 10:49:40;;;;;;;11.77;0.80;;;;;;;10.71;57.88;99530.59;10506548;28;20048;-69
2023/12/29 10:54:43;;;;;;;1.02;0.93;;;;;;;10.43;58.51;99510.69;10498978;28;20645;-70
2023/12/29 10:59:55;;;;;;;0.70;0.70;;;;;;;10.50;58.29;99516.34;10506930;28;20163;-71
2023/12/29 11:05:03;;;;;;;;;;;;;;;10.51;58.35;99510.16;10488670;28;20048;-70
2023/12/29 11:10:09;;;;;;;0.70;0.70;;;;;;;10.60;57.99;99512.19;10505661;28;19938;-71
2023/12/29 11:15:13;;;;;;;0.35;0.35;;;;;;;10.72;57.33;99492.22;10504134;28;20496;-70
2023/12/29 11:20:16;;;;;;;0.70;0.70;;;;;;;10.84;57.24;99484.38;10506465;28;20051;-70
2023/12/29 11:25:18;;;;;;;0.60;0.60;;;;;;;10.84;57.26;99476.53;10490722;28;20036;-72
2023/12/29 11:30:20;;;;;;;2.05;0.90;;;;;;;10.85;56.97;99474.75;10494884;28;20055;-71
2023/12/29 11:35:37;;;;;;;0.57;0.30;;;;;;;11.09;56.57;99480.97;10511402;28;20051;-71
2023/12/29 11:40:43;;;;;;;1.65;0.75;;;;;;;11.02;56.39;99472.66;10511585;28;20059;-71
2023/12/29 11:45:47;;;;;;;0.77;0.60;;;;;;;11.14;56.50;99463.16;10512317;28;20044;-71
2023/12/29 11:50:49;;;;;;;0.98;0.70;;;;;;;11.06;55.95;99476.78;10514190;28;20690;-70
2023/12/29 11:55:52;;;;;;;0.68;0.60;;;;;;;11.17;55.95;99457.72;10514685;28;20052;-70
2023/12/29 12:00:55;;;;;;;0.40;0.40;;;;;;;10.92;55.74;99466.38;10495826;28;20591;-70
2023/12/29 12:05:59;;;;;;;0.93;0.60;;;;;;;10.96;55.88;99473.09;10513896;28;20411;-70
2023/12/29 12:11:39;;;;;;;0.68;0.50;;;;;;;10.92;55.42;99476.84;10514100;28;20871;-71
2023/12/29 12:16:45;;;;;;;0.80;0.30;;;;;;;11.03;55.52;99463.84;10466521;28;20836;-70
2023/12/29 12:21:48;;;;;;;1.77;0.70;;;;;;;11.11;55.46;99450.31;10528588;27;20131;-71
2023/12/29 12:26:51;;;;;;;0.95;0.55;;;;;;;10.97;55.28;99469.50;10496617;28;20072;-71
2023/12/29 12:31:57;;;;;;;3.70;0.50;;;;;;;10.88;55.63;99474.53;10513579;28;20644;-71
2023/12/29 12:37:02;;;;;;;1.45;0.43;;;;;;;10.88;55.87;99464.09;10507272;28;20052;-70
2023/12/29 12:42:04;;;;;;;0.47;0.38;;;;;;;10.98;55.70;99446.81;10510799;28;20077;-70
2023/12/29 12:47:14;;;;;;;0.47;0.40;;;;;;;10.96;55.23;99467.00;10512664;28;20044;-70
2023/12/29 12:52:18;;;;;;;0.98;0.40;;;;;;;10.88;55.96;99437.91;10511777;28;20052;-71
2023/12/29 12:57:21;;;;;;;0.45;0.45;;;;;;;10.91;56.01;99443.78;10511748;28;20055;-70
2023/12/29 13:02:25;;;;;;;0.52;0.40;;;;;;;10.88;55.85;99462.31;10527140;28;20070;-71
2023/12/29 13:07:28;;;;;;;0.68;0.32;;;;;;;10.78;56.39;99442.94;10511937;28;20569;-69
2023/12/29 13:12:30;;;;;;;1.52;0.57;;;;;;;10.76;56.61;99444.84;10510943;28;20052;-71
2023/12/29 13:17:32;;;;;;;0.45;0.40;;;;;;;10.74;56.92;99454.56;10510590;28;20853;-70
2023/12/29 13:22:34;;;;;;;0.50;0.45;;;;;;;10.79;57.12;99444.63;10508416;28;20045;-71
2023/12/29 13:27:39;;;;;;;0.40;0.30;;;;;;;10.55;57.87;99438.44;10510050;28;20157;-70
2023/12/29 13:32:44;;;;;;;0.63;0.50;;;;;;;10.78;57.35;99439.50;10510317;28;20059;-71
2023/12/29 13:37:59;;;;;;;0.95;0.77;;;;;;;10.69;57.33;99429.66;10509288;28;20054;-70
2023/12/29 13:43:03;;;;;;;1.63;0.90;;;;;;;10.63;57.66;99417.00;10490455;28;20139;-70
2023/12/29 13:48:08;;;;;;;0.80;0.80;;;;;;;10.52;57.92;99418.56;10509581;28;20040;-70
2023/12/29 13:53:17;;;;;;;0.75;0.50;;;;;;;10.59;57.62;99429.44;10508294;28;20051;-71
2023/12/29 13:58:19;;;;;;;0.77;0.55;;;;;;;10.46;58.06;99426.81;10503994;28;20067;-71
2023/12/29 14:03:32;;;;;;;0.90;0.60;;;;;;;10.57;57.77;99427.88;10506994;28;20055;-70
2023/12/29 14:08:45;;;;;;;2.50;1.00;;;;;;;10.62;57.77;99420.56;10508825;28;20048;-71
2023/12/29 14:13:50;;;;;;;0.65;0.65;;;;;;;10.71;57.59;99410.31;10504569;28;20080;-71
2023/12/29 14:18:59;;;;;;;1.33;0.70;;;;;;;10.65;57.89;99417.72;10488911;28;20503;-71
2023/12/29 14:24:10;;;;;;;3.85;1.13;;;;;;;10.62;57.65;99416.19;10505735;28;20044;-71
2023/12/29 14:29:13;;;;;;;1.38;1.10;;;;;;;10.67;57.46;99419.28;10504588;28;20082;-71
2023/12/29 14:34:16;;;;;;;1.77;1.08;;;;;;;10.72;57.29;99426.84;10503454;28;20055;-70
2023/12/29 14:39:18;;;;;;;10.60;2.35;;;;;;;10.55;57.50;99427.97;10489388;28;20051;-71
2023/12/29 14:44:20;;;;;;;4.68;1.42;;;;;;;10.59;57.70;99423.38;10483339;28;20033;-71
2023/12/29 14:49:22;;;;;;;3.72;2.10;;;;;;;10.60;57.73;99420.66;10506062;28;20487;-72
2023/12/29 14:54:25;;;;;;;3.90;1.80;;;;;;;10.64;57.58;99427.38;10504452;28;20048;-72
2023/12/29 14:59:27;;;;;;;3.97;1.58;;;;;;;10.58;57.60;99424.31;10511159;28;20138;-72
2023/12/29 15:04:31;;;;;;;2.78;1.30;;;;;;;10.72;57.41;99412.00;10495013;28;20036;-73
2023/12/29 15:09:35;;;;;;;1.48;1.15;;;;;;;10.62;57.58;99416.19;10514977;28;20104;-72
2023/12/29 15:14:37;;;;;;;1.52;1.00;;;;;;;10.47;57.97;99418.03;10512004;28;20077;-72
2023/12/29 15:19:39;;;;;;;1.13;0.80;;;;;;;10.56;57.86;99403.53;10514781;28;20032;-72
2023/12/29 15:24:42;;;;;;;3.85;1.80;;;;;;;10.58;58.14;99401.63;10496693;28;20136;-72
2023/12/29 15:29:44;;;;;;;1.05;0.63;;;;;;;10.46;58.11;99395.44;10492141;28;20040;-71
2023/12/29 15:34:46;;;;;;;1.60;0.73;;;;;;;10.22;59.37;99396.25;10513692;28;20134;-71
2023/12/29 15:39:48;;;;;;;0.40;0.40;;;;;;;10.19;59.52;99391.25;10509173;28;20059;-71
2023/12/29 15:44:51;;;;;;;1.02;0.70;;;;;;;10.20;59.32;99400.75;10511272;28;20044;-71
2023/12/29 15:49:53;;;;;;;1.60;0.63;;;;;;;10.17;59.55;99387.88;10515513;28;20043;-70
2023/12/29 15:54:55;;;;;;;0.40;0.40;;;;;;;10.15;59.58;99381.94;10507569;28;20256;-71
2023/12/29 15:59:58;;;;;;;0.40;0.40;;;;;;;10.23;59.57;99375.25;10513577;28;20058;-65
2023/12/29 16:05:01;;;;;;;4.60;0.80;;;;;;;10.23;59.53;99377.03;10511771;28;20100;-65
2023/12/29 16:10:03;;;;;;;0.55;0.55;;;;;;;10.16;59.82;99375.75;10511961;28;20071;-67
2023/12/29 16:15:06;;;;;;;1.05;0.93;;;;;;;10.17;59.73;99382.66;10506466;28;20051;-65
2023/12/29 16:20:09;;;;;;;0.70;0.70;;;;;;;10.21;59.62;99381.53;10530056;27;20071;-65
2023/12/29 16:25:11;;;;;;;0.93;0.63;;;;;;;10.22;59.57;99365.72;10511117;28;20434;-65
2023/12/29 16:30:13;;;;;;;0.80;0.63;;;;;;;10.25;59.38;99369.91;10513277;28;20102;-65
2023/12/29 16:35:15;;;;;;;0.47;0.47;;;;;;;10.30;59.20;99373.91;10510381;28;20415;-65
2023/12/29 16:40:18;;;;;;;1.20;0.80;;;;;;;10.33;59.10;99378.94;10494461;28;20125;-65
2023/12/29 16:45:20;;;;;;;0.82;0.55;;;;;;;10.36;58.78;99375.25;10508896;28;20142;-65
2023/12/29 16:50:22;;;;;;;1.48;0.70;;;;;;;10.32;58.87;99365.94;10472969;28;20054;-65
2023/12/29 16:55:24;;;;;;;0.85;0.68;;;;;;;10.25;58.90;99367.31;10509898;28;20052;-64
2023/12/29 17:00:26;;;;;;;0.47;0.47;;;;;;;10.32;59.25;99376.41;10511875;28;20040;-64
2023/12/29 17:05:28;;;;;;;1.20;0.60;;;;;;;10.28;59.12;99386.22;10509111;28;20044;-64
2023/12/29 17:10:30;;;;;;;1.23;0.70;;;;;;;10.35;59.16;99365.75;10510904;28;20048;-65
2023/12/29 17:15:32;;;;;;;0.50;0.50;;;;;;;10.36;59.19;99352.56;10509084;28;20458;-64
2023/12/29 17:20:34;;;;;;;0.43;0.40;;;;;;;10.30;59.41;99354.75;10509085;28;20048;-65
2023/12/29 17:25:36;;;;;;;1.83;0.73;;;;;;;10.33;59.29;99354.56;10504108;28;20044;-65
2023/12/29 17:30:51;;;;;;;1.98;0.95;;;;;;;10.26;59.26;99353.28;10507984;28;20119;-64
2023/12/29 17:35:53;;;;;;;3.33;0.98;;;;;;;10.16;59.37;99345.25;10507618;28;20067;-65
2023/12/29 17:40:55;;;;;;;1.08;0.80;;;;;;;10.18;59.54;99358.19;10502985;28;20063;-64
2023/12/29 17:45:58;;;;;;;0.57;0.50;;;;;;;10.35;59.24;99365.75;10505006;28;20125;-64
2023/12/29 17:51:00;;;;;;;1.33;0.88;;;;;;;10.25;59.06;99380.38;10490324;28;20040;-65
2023/12/29 17:56:05;;;;;;;0.50;0.50;;;;;;;10.26;59.26;99380.25;10505382;28;20156;-64
2023/12/29 18:01:07;;;;;;;0.43;0.43;;;;;;;10.30;59.50;99389.56;10502144;28;20048;-64
2023/12/29 18:06:13;;;;;;;4.28;1.20;;;;;;;10.20;59.78;99379.84;10504975;28;20530;-65
2023/12/29 18:11:18;;;;;;;4.03;1.08;;;;;;;10.19;60.39;99380.78;10506504;28;20495;-65
2023/12/29 18:16:20;;;;;;;0.73;0.52;;;;;;;10.14;61.04;99378.47;10504444;28;20048;-64
2023/12/29 18:21:22;;;;;;;0.60;0.60;;;;;;;9.93;61.85;99390.34;10506787;28;20040;-64
2023/12/29 18:26:24;;;;;;;1.38;0.82;;;;;;;9.75;62.94;99388.09;10506028;28;20040;-65
2023/12/29 18:31:26;;;;;;;1.73;0.65;;;;;;;9.71;63.33;99389.25;10506274;28;20047;-65
2023/12/29 18:36:29;;;;;;;3.50;1.20;;;;;;;9.77;62.92;99394.88;10508129;28;20055;-65
2023/12/29 18:41:31;;;;;;;2.08;1.08;;;;;;;9.82;62.78;99397.19;10517410;28;20773;-64
2023/12/29 18:46:33;;;;;;;5.40;1.77;;;;;;;9.76;63.54;99395.00;10513082;28;20059;-65
2023/12/29 18:51:35;;;;;;;3.38;1.55;;;;;;;9.65;64.36;99400.88;10515455;28;20044;-63
2023/12/29 18:56:38;;;;;;;3.95;1.23;;;;;;;9.60;64.94;99401.19;10514200;28;20499;-64
2023/12/29 19:01:44;;;;;;;4.38;2.10;;;;;;;9.58;64.56;99404.81;10509617;28;20135;-63
2023/12/29 19:06:47;;;;;;;4.72;1.65;;;;;;;9.43;65.20;99396.19;10512569;28;20054;-64
2023/12/29 19:11:50;;;;;;;5.28;2.30;;;;;;;9.40;65.71;99414.63;10515189;28;20058;-63
2023/12/29 19:16:53;;;;;;;3.67;1.83;;;;;;;9.45;65.14;99423.03;10510298;28;20086;-64
2023/12/29 19:21:55;;;;;;;4.50;2.05;;;;;;;9.37;65.49;99421.81;10513902;28;20048;-63
2023/12/29 19:26:58;;;;;;;2.90;1.48;;;;;;;9.23;65.40;99409.66;10511295;28;20056;-63
2023/12/29 19:32:00;;;;;;;8.18;2.47;;;;;;;9.30;65.41;99421.38;10495083;28;20044;-64
2023/12/29 19:37:03;;;;;;;7.35;2.33;;;;;;;9.47;65.09;99430.75;10493935;28;20066;-64
2023/12/29 19:42:05;;;;;;;4.15;1.52;;;;;;;9.56;64.92;99401.47;10511695;28;20048;-64
2023/12/29 19:47:08;;;;;;;3.08;1.27;;;;;;;9.62;64.62;99404.53;10508494;28;20271;-64
2023/12/29 19:52:11;;;;;;;3.55;1.35;;;;;;;9.59;64.83;99394.28;10513093;28;20044;-63
2023/12/29 19:57:13;;;;;;;5.50;2.60;;;;;;;9.60;64.63;99413.41;10510597;28;20134;-64
2023/12/29 20:02:15;;;;;;;3.88;1.80;;;;;;;9.58;64.29;99400.41;10507780;28;20051;-64
2023/12/29 20:07:17;;;;;;;3.65;1.67;;;;;;;9.55;64.37;99405.00;10509378;28;20048;-64
2023/12/29 20:12:19;;;;;;;4.13;1.58;;;;;;;9.50;64.39;99399.25;10510185;28;20484;-65
2023/12/29 20:17:22;;;;;;;1.73;0.80;;;;;;;9.49;64.42;99397.56;10506859;28;20143;-63
2023/12/29 20:22:26;;;;;;;2.15;0.90;;;;;;;9.53;64.39;99386.84;10507703;28;20496;-64
2023/12/29 20:27:28;;;;;;;3.53;1.08;;;;;;;9.64;64.03;99394.81;10505748;28;20422;-63
2023/12/29 20:32:30;;;;;;;4.63;1.13;;;;;;;9.67;64.30;99398.22;10511191;28;20553;-64
2023/12/29 20:37:33;;;;;;;0.60;0.60;;;;;;;9.61;64.63;99415.91;10507112;28;20131;-64
2023/12/29 20:42:35;;;;;;;0.93;0.77;;;;;;;9.56;65.04;99402.28;10511539;28;20501;-63
2023/12/29 20:47:37;;;;;;;2.53;0.63;;;;;;;9.47;65.65;99413.34;10509190;28;20419;-63
2023/12/29 20:52:39;;;;;;;1.27;1.00;;;;;;;9.50;65.64;99413.13;10508186;28;20044;-63
2023/12/29 20:57:41;;;;;;;0.55;0.55;;;;;;;9.35;66.32;99411.50;10505380;28;20131;-64
2023/12/29 21:02:43;;;;;;;2.88;1.42;;;;;;;9.30;66.24;99412.72;10512715;28;20040;-64
2023/12/29 21:07:45;;;;;;;1.48;1.15;;;;;;;9.22;66.56;99407.16;10515547;28;20048;-64
2023/12/29 21:12:47;;;;;;;1.02;0.70;;;;;;;9.30;66.39;99410.94;10512288;28;20131;-63
2023/12/29 21:17:49;;;;;;;1.33;0.52;;;;;;;9.39;66.50;99431.25;10498996;28;20047;-63
2023/12/29 21:22:51;;;;;;;0.65;0.65;;;;;;;9.52;66.23;99439.97;10512911;28;20048;-64
2023/12/29 21:27:53;;;;;;;1.92;0.55;;;;;;;9.42;66.37;99438.88;10491048;28;20048;-64
2023/12/29 21:32:58;;;;;;;1.63;1.05;;;;;;;9.32;66.68;99443.00;10511893;28;20059;-64
2023/12/29 21:38:02;;;;;;;1.23;0.60;;;;;;;9.31;66.79;99449.16;10512724;28;20048;-64
2023/12/29 21:43:07;;;;;;;0.47;0.38;;;;;;;9.38;66.65;99431.34;10513521;28;20047;-63
2023/12/29 21:48:10;;;;;;;1.20;0.70;;;;;;;9.41;66.53;99428.53;10495480;28;20093;-63
2023/12/29 21:53:12;;;;;;;0.75;0.63;;;;;;;9.31;66.82;99432.66;10512513;28;20048;-63
2023/12/29 21:58:14;;;;;;;1.08;0.50;;;;;;;9.42;66.46;99435.44;10513581;28;20131;-63
2023/12/29 22:03:16;;;;;;;1.17;0.82;;;;;;;9.49;66.34;99440.16;10513204;28;20052;-62
2023/12/29 22:08:18;;;;;;;0.68;0.68;;;;;;;9.42;66.37;99446.69;10513998;28;20063;-64
2023/12/29 22:13:20;;;;;;;2.53;0.75;;;;;;;9.40;66.28;99451.19;10513793;28;20093;-64
2023/12/29 22:18:22;;;;;;;1.38;0.75;;;;;;;9.29;66.46;99458.00;10512391;28;20060;-64
2023/12/29 22:23:24;;;;;;;0.80;0.80;;;;;;;9.17;66.55;99467.44;10514609;28;20043;-64
2023/12/29 22:28:26;;;;;;;1.50;1.10;;;;;;;9.15;66.54;99453.66;10493593;28;20488;-63
2023/12/29 22:33:28;;;;;;;1.77;1.00;;;;;;;9.17;66.39;99449.19;10512251;28;20039;-63
2023/12/29 22:38:32;;;;;;;0.50;0.50;;;;;;;9.24;66.29;99458.28;10527216;28;20052;-63
2023/12/29 22:43:35;;;;;;;0.63;0.63;;;;;;;9.12;66.06;99466.88;10513716;28;20051;-64
2023/12/29 22:48:37;;;;;;;2.90;1.10;;;;;;;9.08;66.22;99469.75;10511954;28;20048;-64
2023/12/29 22:53:39;;;;;;;3.80;0.95;;;;;;;9.08;66.19;99472.34;10510650;28;20075;-64
2023/12/29 22:58:41;;;;;;;2.13;1.25;;;;;;;9.11;66.10;99473.03;10511428;28;20127;-63
2023/12/29 23:03:46;;;;;;;0.93;0.70;;;;;;;9.19;65.81;99486.44;10513066;28;20055;-63
2023/12/29 23:08:48;;;;;;;2.22;0.93;;;;;;;9.09;65.62;99485.31;10512629;28;20040;-63
2023/12/29 23:13:50;;;;;;;0.98;0.52;;;;;;;8.98;65.46;99486.88;10514878;28;20051;-63
2023/12/29 23:18:52;;;;;;;0.52;0.52;;;;;;;8.81;65.72;99487.91;10514589;28;20051;-63
2023/12/29 23:23:54;;;;;;;1.38;0.73;;;;;;;8.84;65.92;99490.31;10538621;27;20075;-63
2023/12/29 23:28:57;;;;;;;1.55;0.82;;;;;;;8.77;66.00;99495.06;10521823;28;20579;-63
2023/12/29 23:33:59;;;;;;;1.85;1.10;;;;;;;8.80;65.82;99505.31;10521441;28;20044;-63
2023/12/29 23:39:01;;;;;;;2.47;1.00;;;;;;;8.59;66.13;99511.78;10520062;28;20131;-63